Time;durP1;ratioP1;P1;durP2;ratioP2;P2;SDS_P1;SDS_P2;PMS_P1;PMS_P2;Temp;Humidity;BMP_temperature;BMP_pressure;BME280_temperature;BME280_humidity;BME280_pressure;Samples;Min_cycle;Max_cycle;Signal;HPM_P1;HPM_P2
2021/09/12 00:00:53;;;;;;;5.85;2.40;;;17.80;93.20;;;;;;2049485;29;20051;-93
2021/09/12 00:02:12;;;;;;;4.05;2.10;;;17.80;93.20;;;;;;2044500;29;20039;-93
2021/09/12 00:03:31;;;;;;;4.88;2.13;;;17.80;93.20;;;;;;2054868;28;20102;-93
2021/09/12 00:04:51;;;;;;;4.97;2.20;;;17.90;93.20;;;;;;2041570;29;20502;-93
2021/09/12 00:06:10;;;;;;;4.20;1.95;;;17.90;93.20;;;;;;2051490;28;20124;-93
2021/09/12 00:07:29;;;;;;;3.58;2.17;;;17.80;93.10;;;;;;2039832;29;20067;-93
2021/09/12 00:08:48;;;;;;;4.95;2.20;;;17.90;93.20;;;;;;2050265;28;20055;-93
2021/09/12 00:10:08;;;;;;;4.20;2.10;;;17.90;93.20;;;;;;2033479;29;20044;-93
2021/09/12 00:11:27;;;;;;;4.85;2.30;;;17.80;93.10;;;;;;2032673;29;20067;-93
2021/09/12 00:12:46;;;;;;;3.97;2.13;;;17.80;93.10;;;;;;2041718;29;20048;-93
2021/09/12 00:14:06;;;;;;;6.60;2.67;;;17.90;93.10;;;;;;2035834;29;20386;-93
2021/09/12 00:15:26;;;;;;;5.43;2.33;;;17.90;93.10;;;;;;2051392;28;20062;-93
2021/09/12 00:16:45;;;;;;;3.97;2.60;;;17.80;93.10;;;;;;2051259;28;20047;-93
2021/09/12 00:18:04;;;;;;;4.95;2.72;;;17.80;93.10;;;;;;2057717;28;20262;-93
2021/09/12 00:19:24;;;;;;;6.57;2.70;;;17.90;93.10;;;;;;2041565;29;20521;-92
2021/09/12 00:20:44;;;;;;;5.22;2.80;;;17.90;93.10;;;;;;2045971;28;20031;-93
2021/09/12 00:22:04;;;;;;;6.78;2.80;;;17.80;93.10;;;;;;2056531;28;20545;-93
2021/09/12 00:23:23;;;;;;;5.63;2.83;;;17.80;93.10;;;;;;2059492;28;20067;-92
2021/09/12 00:24:42;;;;;;;6.63;3.15;;;17.90;93.10;;;;;;2065856;28;20106;-93
2021/09/12 00:26:01;;;;;;;7.30;3.00;;;17.80;93.10;;;;;;2057437;28;20110;-93
2021/09/12 00:27:21;;;;;;;5.57;3.00;;;17.80;93.10;;;;;;2054448;28;20035;-93
2021/09/12 00:28:40;;;;;;;5.13;3.08;;;17.80;93.10;;;;;;2057854;28;20042;-93
2021/09/12 00:29:59;;;;;;;7.20;3.35;;;17.80;93.10;;;;;;2058075;28;20039;-93
2021/09/12 00:31:18;;;;;;;7.22;3.30;;;17.80;93.10;;;;;;2041312;29;20048;-93
2021/09/12 00:32:37;;;;;;;6.43;3.30;;;17.80;93.10;;;;;;2041655;29;20031;-93
2021/09/12 00:33:57;;;;;;;5.85;3.33;;;17.80;93.10;;;;;;2041552;29;20063;-92
2021/09/12 00:35:16;;;;;;;6.97;3.40;;;17.80;93.10;;;;;;2043222;29;20039;-93
2021/09/12 00:36:35;;;;;;;5.57;3.40;;;17.80;93.00;;;;;;2038615;29;20052;-92
2021/09/12 00:37:54;;;;;;;6.53;3.55;;;17.80;93.10;;;;;;2038720;29;20079;-93
2021/09/12 00:39:14;;;;;;;5.50;3.35;;;17.80;93.10;;;;;;2046217;29;20063;-93
2021/09/12 00:40:33;;;;;;;8.30;3.60;;;17.80;93.00;;;;;;2041980;29;20047;-92
2021/09/12 00:41:52;;;;;;;8.40;3.55;;;17.90;93.10;;;;;;2054602;28;20042;-92
2021/09/12 00:43:11;;;;;;;6.40;3.65;;;17.80;93.00;;;;;;2049282;29;20047;-93
2021/09/12 00:44:30;;;;;;;6.85;3.90;;;17.80;93.00;;;;;;2054574;28;20035;-92
2021/09/12 00:45:54;;;;;;;7.03;3.72;;;17.80;93.00;;;;;;2041336;29;20047;-93
2021/09/12 00:47:14;;;;;;;6.07;3.50;;;17.80;93.00;;;;;;2044467;29;20522;-93
2021/09/12 00:48:36;;;;;;;6.82;3.90;;;17.80;93.00;;;;;;2046386;29;20039;-93
2021/09/12 00:49:56;;;;;;;4.95;3.40;;;17.80;93.00;;;;;;2062640;28;20047;-93
2021/09/12 00:51:15;;;;;;;6.63;3.78;;;17.80;93.00;;;;;;2057312;28;20047;-93
2021/09/12 00:52:38;;;;;;;8.20;3.30;;;17.80;93.00;;;;;;2062543;28;20042;-92
2021/09/12 00:53:59;;;;;;;6.20;3.50;;;17.80;93.00;;;;;;2066627;28;20034;-92
2021/09/12 00:55:19;;;;;;;5.95;3.33;;;17.80;93.00;;;;;;2050795;28;20120;-93
2021/09/12 00:56:41;;;;;;;8.38;3.63;;;17.80;93.00;;;;;;2056368;28;20095;-93
2021/09/12 00:58:02;;;;;;;7.13;3.60;;;17.80;93.00;;;;;;2065245;28;20050;-93
2021/09/12 00:59:22;;;;;;;6.85;3.95;;;17.80;93.00;;;;;;2058909;28;20034;-93
2021/09/12 01:00:43;;;;;;;6.85;3.83;;;17.80;93.00;;;;;;2064358;28;20034;-93
2021/09/12 01:02:08;;;;;;;7.40;3.80;;;17.80;93.00;;;;;;2055478;28;20039;-92
2021/09/12 01:03:27;;;;;;;7.57;4.15;;;17.80;93.00;;;;;;2064784;28;20046;-93
2021/09/12 01:04:47;;;;;;;5.80;3.28;;;17.70;92.90;;;;;;2050777;29;20032;-93
2021/09/12 01:06:07;;;;;;;5.78;3.50;;;17.70;92.90;;;;;;2061174;28;20046;-92
2021/09/12 01:07:26;;;;;;;6.53;3.40;;;17.80;93.00;;;;;;2058821;28;20035;-91
2021/09/12 01:08:45;;;;;;;6.22;3.42;;;17.70;92.90;;;;;;2064026;28;20492;-92
2021/09/12 01:10:06;;;;;;;7.45;3.63;;;17.70;92.90;;;;;;2050423;29;20418;-92
2021/09/12 01:11:26;;;;;;;;;;;17.70;92.90;;;;;;2048235;29;20489;-93
2021/09/12 01:12:45;;;;;;;6.05;3.40;;;17.70;92.90;;;;;;2047477;29;19914;-93
2021/09/12 01:14:05;;;;;;;5.50;3.30;;;17.70;92.90;;;;;;2060548;28;20070;-93
2021/09/12 01:15:24;;;;;;;7.10;3.08;;;17.70;92.90;;;;;;2039545;29;20044;-93
2021/09/12 01:16:44;;;;;;;6.38;3.67;;;17.70;92.90;;;;;;2041704;29;20031;-92
2021/09/12 01:18:03;;;;;;;5.55;3.40;;;17.70;92.90;;;;;;2047911;29;20122;-93
2021/09/12 01:19:23;;;;;;;5.80;3.47;;;17.70;93.20;;;;;;2053320;28;20043;-91
2021/09/12 01:20:44;;;;;;;6.10;3.58;;;17.70;92.90;;;;;;2061592;28;20046;-93
2021/09/12 01:22:06;;;;;;;6.50;3.65;;;17.70;92.90;;;;;;2050695;29;20047;-93
2021/09/12 01:23:25;;;;;;;6.57;3.35;;;17.70;92.90;;;;;;2060995;28;20030;-93
2021/09/12 01:24:45;;;;;;;7.35;3.70;;;17.70;92.90;;;;;;2050535;28;20122;-93
2021/09/12 01:26:04;;;;;;;7.75;4.10;;;17.70;92.90;;;;;;2060923;28;20042;-93
2021/09/12 01:27:23;;;;;;;5.75;3.65;;;17.70;92.90;;;;;;2042731;29;20040;-93
2021/09/12 01:28:42;;;;;;;6.80;3.95;;;17.60;92.90;;;;;;2047702;29;20043;-93
2021/09/12 01:30:03;;;;;;;7.00;3.80;;;17.70;92.90;;;;;;2051703;28;20503;-93
2021/09/12 01:31:26;;;;;;;8.18;4.22;;;17.60;92.90;;;;;;2056710;28;20125;-92
2021/09/12 01:32:45;;;;;;;6.22;4.07;;;17.60;92.90;;;;;;2056272;28;20047;-93
2021/09/12 01:34:05;;;;;;;7.57;4.18;;;17.60;92.90;;;;;;2050628;29;20043;-92
2021/09/12 01:35:24;;;;;;;7.07;4.10;;;17.60;92.80;;;;;;2045344;29;20102;-92
2021/09/12 01:36:44;;;;;;;6.93;3.83;;;17.60;92.80;;;;;;2060696;28;20046;-92
2021/09/12 01:38:03;;;;;;;4.82;3.60;;;17.60;92.80;;;;;;2050562;29;20122;-93
2021/09/12 01:39:22;;;;;;;6.72;3.85;;;17.60;92.90;;;;;;2060214;28;20038;-93
2021/09/12 01:40:41;;;;;;;5.95;3.90;;;17.60;92.90;;;;;;2050349;28;20039;-93
2021/09/12 01:42:00;;;;;;;5.07;3.70;;;17.60;92.90;;;;;;2047574;29;20538;-93
2021/09/12 01:43:20;;;;;;;6.35;4.00;;;17.50;92.80;;;;;;2059482;28;20042;-93
2021/09/12 01:44:50;;;;;;;6.95;4.10;;;17.60;92.90;;;;;;2058472;28;20039;-94
2021/09/12 01:46:09;;;;;;;5.95;4.03;;;17.50;92.80;;;;;;2052700;28;20031;-93
2021/09/12 01:47:28;;;;;;;7.18;4.18;;;17.50;92.90;;;;;;2055398;28;20103;-93
2021/09/12 01:48:51;;;;;;;7.85;4.30;;;17.50;92.80;;;;;;2058588;28;20424;-92
2021/09/12 01:50:10;;;;;;;6.25;4.07;;;17.50;92.90;;;;;;2056193;28;20031;-93
2021/09/12 01:51:30;;;;;;;7.28;4.00;;;17.50;92.90;;;;;;2050390;29;20397;-93
2021/09/12 01:52:50;;;;;;;8.00;4.00;;;17.50;92.90;;;;;;2050534;28;20039;-93
2021/09/12 01:54:09;;;;;;;6.75;3.75;;;17.50;92.90;;;;;;2054596;28;20042;-93
2021/09/12 01:55:29;;;;;;;6.10;3.78;;;17.50;92.90;;;;;;2063771;28;20050;-92
2021/09/12 01:56:49;;;;;;;6.68;3.80;;;17.40;92.80;;;;;;2058051;28;20031;-93
2021/09/12 01:58:08;;;;;;;6.18;3.70;;;17.40;92.80;;;;;;2041812;29;20048;-93
2021/09/12 01:59:27;;;;;;;6.18;3.85;;;17.40;92.80;;;;;;2039436;29;20039;-93
2021/09/12 02:00:46;;;;;;;6.75;3.70;;;17.40;92.80;;;;;;2036269;29;20052;-92
2021/09/12 02:02:06;;;;;;;6.75;3.80;;;17.40;92.80;;;;;;2050786;28;20035;-93
2021/09/12 02:03:25;;;;;;;5.97;3.60;;;17.30;92.80;;;;;;2058328;28;20557;-92
2021/09/12 02:04:44;;;;;;;5.95;3.60;;;17.30;92.80;;;;;;2063733;28;20042;-93
2021/09/12 02:06:04;;;;;;;5.20;3.40;;;17.30;92.80;;;;;;2041878;29;20051;-93
2021/09/12 02:07:23;;;;;;;6.13;3.75;;;17.30;92.80;;;;;;2049496;28;20039;-93
2021/09/12 02:08:43;;;;;;;6.00;3.80;;;17.30;92.90;;;;;;2050623;29;20039;-93
2021/09/12 02:10:02;;;;;;;5.28;3.40;;;17.20;92.80;;;;;;2057650;28;20046;-92
2021/09/12 02:11:21;;;;;;;5.25;3.08;;;17.20;92.80;;;;;;2053156;28;20043;-93
2021/09/12 02:12:41;;;;;;;5.22;3.47;;;17.20;92.90;;;;;;2060613;28;20410;-92
2021/09/12 02:14:01;;;;;;;5.15;3.50;;;17.20;92.90;;;;;;2060076;28;20075;-92
2021/09/12 02:15:21;;;;;;;6.18;3.60;;;17.10;92.90;;;;;;2055537;29;20094;-92
2021/09/12 02:16:40;;;;;;;6.13;3.40;;;17.10;93.10;;;;;;2054307;28;20050;-93
2021/09/12 02:17:59;;;;;;;5.53;3.50;;;17.10;92.90;;;;;;2053788;28;20074;-93
2021/09/12 02:19:19;;;;;;;5.22;3.45;;;17.10;92.80;;;;;;2063555;28;20046;-92
2021/09/12 02:20:38;;;;;;;6.05;3.70;;;17.10;92.80;;;;;;2050308;28;20517;-92
2021/09/12 02:21:57;;;;;;;5.25;3.20;;;17.10;92.80;;;;;;2046001;29;20568;-93
2021/09/12 02:23:17;;;;;;;5.47;3.28;;;17.10;92.80;;;;;;2050271;29;20039;-92
2021/09/12 02:24:36;;;;;;;6.80;3.47;;;17.10;92.90;;;;;;2043834;28;20050;-92
2021/09/12 02:25:55;;;;;;;4.75;3.22;;;17.10;92.80;;;;;;2053713;28;20114;-93
2021/09/12 02:27:14;;;;;;;5.03;3.25;;;17.00;92.80;;;;;;2047384;29;20522;-93
2021/09/12 02:28:34;;;;;;;5.05;3.25;;;17.00;92.80;;;;;;2047132;29;20047;-93
2021/09/12 02:29:53;;;;;;;5.18;3.25;;;17.00;92.80;;;;;;2055781;28;20047;-93
2021/09/12 02:31:12;;;;;;;4.95;3.15;;;17.00;92.80;;;;;;2056829;28;20043;-93
2021/09/12 02:32:32;;;;;;;4.93;3.10;;;17.00;92.80;;;;;;2054712;28;20039;-93
2021/09/12 02:33:51;;;;;;;5.20;3.03;;;17.00;92.80;;;;;;2059192;28;20066;-93
2021/09/12 02:35:10;;;;;;;6.05;3.22;;;17.00;92.80;;;;;;2046946;29;20043;-92
2021/09/12 02:36:30;;;;;;;4.40;2.88;;;17.00;93.10;;;;;;2055354;28;20122;-92
2021/09/12 02:37:49;;;;;;;4.72;2.90;;;16.90;92.70;;;;;;2063731;28;20126;-92
2021/09/12 02:39:08;;;;;;;5.10;3.03;;;16.90;92.80;;;;;;2058089;28;20072;-93
2021/09/12 02:40:28;;;;;;;4.10;2.90;;;16.90;92.80;;;;;;2063462;28;20038;-92
2021/09/12 02:41:47;;;;;;;4.68;3.10;;;16.90;92.80;;;;;;2058092;28;20047;-93
2021/09/12 02:43:07;;;;;;;6.20;2.92;;;16.90;92.80;;;;;;2063238;28;20125;-94
2021/09/12 02:44:26;;;;;;;4.75;3.10;;;16.80;92.70;;;;;;2058033;28;20473;-93
2021/09/12 02:45:45;;;;;;;3.63;2.55;;;16.80;92.70;;;;;;2063160;28;20497;-93
2021/09/12 02:47:04;;;;;;;6.32;3.00;;;16.80;92.70;;;;;;2049911;29;20043;-92
2021/09/12 02:48:23;;;;;;;6.88;2.97;;;16.80;92.70;;;;;;2059491;28;20038;-92
2021/09/12 02:49:43;;;;;;;4.70;2.83;;;16.80;92.70;;;;;;2049871;29;20118;-93
2021/09/12 02:51:02;;;;;;;4.15;2.65;;;16.80;92.70;;;;;;2054847;28;20047;-93
2021/09/12 02:52:21;;;;;;;5.07;2.78;;;16.80;92.70;;;;;;2042275;29;20495;-93
2021/09/12 02:53:41;;;;;;;4.50;2.83;;;16.70;92.70;;;;;;2051956;28;20461;-91
2021/09/12 02:55:00;;;;;;;5.40;2.80;;;16.70;92.90;;;;;;2063760;28;20042;-94
2021/09/12 02:56:19;;;;;;;5.10;2.80;;;16.70;92.70;;;;;;2067249;28;20042;-93
2021/09/12 02:57:38;;;;;;;5.63;2.78;;;16.70;92.60;;;;;;2057681;28;20433;-93
2021/09/12 02:58:57;;;;;;;4.43;2.70;;;16.70;92.60;;;;;;2057988;28;20038;-93
2021/09/12 03:00:17;;;;;;;3.95;2.70;;;16.70;92.60;;;;;;2056066;28;20497;-93
2021/09/12 03:01:36;;;;;;;4.38;2.42;;;16.70;92.60;;;;;;2049650;29;20042;-93
2021/09/12 03:02:56;;;;;;;4.65;2.80;;;16.70;92.60;;;;;;2059980;28;20038;-92
2021/09/12 03:04:15;;;;;;;4.22;2.53;;;16.60;92.60;;;;;;2066638;28;20042;-92
2021/09/12 03:05:34;;;;;;;5.25;2.80;;;16.60;92.50;;;;;;2057679;28;20465;-93
2021/09/12 03:06:54;;;;;;;3.55;2.38;;;16.60;92.50;;;;;;2063240;28;20050;-93
2021/09/12 03:08:13;;;;;;;3.88;2.40;;;16.60;92.50;;;;;;2057775;28;20505;-92
2021/09/12 03:09:32;;;;;;;5.57;2.53;;;16.60;92.50;;;;;;2050072;29;20047;-93
2021/09/12 03:10:52;;;;;;;3.83;2.33;;;16.50;92.50;;;;;;2051845;28;20034;-92
2021/09/12 03:12:11;;;;;;;4.38;2.40;;;16.50;92.50;;;;;;2054832;28;20432;-93
2021/09/12 03:13:31;;;;;;;3.50;2.40;;;16.50;92.50;;;;;;2062818;28;20089;-93
2021/09/12 03:14:50;;;;;;;5.95;2.55;;;16.50;92.50;;;;;;2066450;28;20038;-93
2021/09/12 03:16:10;;;;;;;4.97;2.87;;;16.50;92.50;;;;;;2049747;29;20071;-93
2021/09/12 03:17:29;;;;;;;4.20;2.50;;;16.50;92.50;;;;;;2053884;28;20255;-93
2021/09/12 03:18:49;;;;;;;3.10;2.13;;;16.40;92.50;;;;;;2057933;28;20413;-93
2021/09/12 03:20:08;;;;;;;4.43;2.50;;;16.40;92.50;;;;;;2057987;28;20039;-93
2021/09/12 03:21:27;;;;;;;6.07;2.63;;;16.40;92.50;;;;;;2046853;29;20043;-93
2021/09/12 03:22:47;;;;;;;4.07;2.58;;;16.30;92.50;;;;;;2046153;29;20035;-93
2021/09/12 03:24:06;;;;;;;4.15;2.38;;;16.30;92.50;;;;;;2054865;28;20047;-93
2021/09/12 03:25:25;;;;;;;3.72;2.38;;;16.30;92.50;;;;;;2051414;28;20035;-94
2021/09/12 03:26:44;;;;;;;4.78;2.47;;;16.30;92.50;;;;;;2054392;28;20038;-93
2021/09/12 03:28:03;;;;;;;5.45;2.10;;;16.30;92.50;;;;;;2062327;28;20493;-93
2021/09/12 03:29:23;;;;;;;4.13;2.45;;;16.20;92.50;;;;;;2058274;28;20042;-94
2021/09/12 03:30:42;;;;;;;6.40;2.75;;;16.30;92.50;;;;;;2061838;28;20113;-93
2021/09/12 03:32:01;;;;;;;4.55;2.58;;;16.20;92.50;;;;;;2057519;28;20469;-92
2021/09/12 03:33:20;;;;;;;4.68;2.85;;;16.20;92.50;;;;;;2054169;28;20027;-93
2021/09/12 03:34:40;;;;;;;4.38;2.40;;;16.20;92.50;;;;;;2066087;28;20038;-94
2021/09/12 03:35:59;;;;;;;4.15;2.53;;;16.20;92.50;;;;;;2057179;28;20183;-93
2021/09/12 03:37:18;;;;;;;4.20;2.67;;;16.20;92.60;;;;;;2062751;28;20031;-93
2021/09/12 03:38:37;;;;;;;4.70;2.67;;;16.20;92.60;;;;;;2049461;29;20043;-93
2021/09/12 03:39:57;;;;;;;4.97;2.90;;;16.10;92.50;;;;;;2058599;28;20124;-93
2021/09/12 03:41:16;;;;;;;5.10;3.08;;;16.10;92.50;;;;;;2049529;28;20078;-92
2021/09/12 03:42:35;;;;;;;5.75;3.00;;;16.10;92.50;;;;;;2050702;28;20036;-93
2021/09/12 03:43:54;;;;;;;5.13;3.05;;;16.10;92.50;;;;;;2054963;28;20046;-93
2021/09/12 03:45:14;;;;;;;5.78;2.90;;;16.00;92.50;;;;;;2047267;29;20039;-93
2021/09/12 03:46:33;;;;;;;5.70;3.38;;;16.00;92.50;;;;;;2061160;28;20078;-92
2021/09/12 03:47:52;;;;;;;6.57;2.90;;;16.00;92.50;;;;;;2057594;28;20046;-93
2021/09/12 03:49:12;;;;;;;5.07;3.00;;;16.00;92.50;;;;;;2055997;28;20043;-93
2021/09/12 03:50:31;;;;;;;5.07;2.63;;;16.00;92.50;;;;;;2047660;28;20071;-92
2021/09/12 03:51:50;;;;;;;4.93;3.13;;;15.90;92.50;;;;;;2058587;28;20102;-93
2021/09/12 03:53:09;;;;;;;4.47;3.30;;;15.90;92.50;;;;;;2063056;28;20421;-94
2021/09/12 03:54:29;;;;;;;4.90;2.92;;;15.90;92.50;;;;;;2049681;29;20047;-93
2021/09/12 03:55:48;;;;;;;5.97;3.10;;;15.90;92.50;;;;;;2050207;28;20038;-93
2021/09/12 03:57:08;;;;;;;5.00;3.22;;;15.90;92.50;;;;;;2042637;29;20088;-93
2021/09/12 03:58:27;;;;;;;5.03;3.13;;;15.90;92.50;;;;;;2044538;28;20055;-93
2021/09/12 03:59:46;;;;;;;6.53;3.33;;;15.80;92.50;;;;;;2050687;28;20115;-93
2021/09/12 04:01:06;;;;;;;4.90;3.10;;;15.80;92.50;;;;;;2056622;28;20047;-93
2021/09/12 04:02:25;;;;;;;5.78;3.10;;;15.80;92.50;;;;;;2044943;29;20438;-93
2021/09/12 04:03:44;;;;;;;4.85;3.28;;;15.80;92.50;;;;;;2051072;28;20035;-93
2021/09/12 04:05:04;;;;;;;5.35;3.20;;;15.80;92.50;;;;;;2054729;28;20486;-94
2021/09/12 04:06:23;;;;;;;5.30;2.92;;;15.70;92.40;;;;;;2047901;28;20051;-93
2021/09/12 04:07:42;;;;;;;4.75;3.03;;;15.70;92.40;;;;;;2066039;28;20034;-93
2021/09/12 04:09:02;;;;;;;4.93;3.25;;;15.70;92.50;;;;;;2057438;28;20070;-94
2021/09/12 04:10:22;;;;;;;5.20;3.30;;;15.70;92.40;;;;;;2046609;29;20094;-94
2021/09/12 04:11:41;;;;;;;5.57;3.50;;;15.70;92.40;;;;;;2051511;28;20043;-93
2021/09/12 04:13:01;;;;;;;5.28;3.13;;;15.70;92.50;;;;;;2054467;28;20039;-93
2021/09/12 04:14:20;;;;;;;5.55;3.33;;;15.60;92.70;;;;;;2041891;29;20486;-94
2021/09/12 04:15:40;;;;;;;4.80;3.20;;;15.60;92.50;;;;;;2038374;29;20055;-94
2021/09/12 04:16:59;;;;;;;6.97;3.47;;;15.60;92.50;;;;;;2048141;28;20051;-96
2021/09/12 04:18:18;;;;;;;6.47;3.42;;;15.60;92.70;;;;;;2052451;28;20051;-94
2021/09/12 04:19:37;;;;;;;5.43;3.40;;;15.60;92.50;;;;;;2043066;29;20130;-93
2021/09/12 04:20:57;;;;;;;5.80;3.70;;;15.60;92.50;;;;;;2051520;28;20078;-93
2021/09/12 04:22:16;;;;;;;5.47;3.67;;;15.60;92.50;;;;;;2064279;28;20046;-94
2021/09/12 04:23:35;;;;;;;5.03;3.45;;;15.60;92.50;;;;;;2064862;28;20035;-94
2021/09/12 04:24:55;;;;;;;5.85;3.50;;;15.50;92.70;;;;;;2057476;28;20042;-94
2021/09/12 04:26:14;;;;;;;5.55;3.40;;;15.50;92.40;;;;;;2038522;29;20039;-93
2021/09/12 04:27:33;;;;;;;7.32;3.90;;;15.50;92.40;;;;;;2040347;29;20043;-93
2021/09/12 04:28:52;;;;;;;5.93;3.60;;;15.50;92.40;;;;;;2050982;28;20046;-93
2021/09/12 04:30:14;;;;;;;7.35;3.80;;;15.50;92.40;;;;;;2061470;28;21206;-93
2021/09/12 04:31:33;;;;;;;5.65;3.53;;;15.40;92.40;;;;;;2050769;29;20118;-94
2021/09/12 04:32:52;;;;;;;6.75;3.78;;;15.40;92.40;;;;;;2061438;28;20038;-92
2021/09/12 04:34:11;;;;;;;7.13;3.80;;;15.40;92.40;;;;;;2049944;29;20481;-93
2021/09/12 04:35:31;;;;;;;5.35;3.85;;;15.40;92.40;;;;;;2049660;28;20043;-93
2021/09/12 04:36:50;;;;;;;6.90;3.75;;;15.40;92.40;;;;;;2055385;28;20055;-93
2021/09/12 04:38:10;;;;;;;7.35;3.60;;;15.40;92.40;;;;;;2047513;29;20039;-93
2021/09/12 04:39:29;;;;;;;5.60;3.75;;;15.40;92.40;;;;;;2050892;28;20083;-94
2021/09/12 04:40:48;;;;;;;7.10;3.70;;;15.40;92.40;;;;;;2045095;28;20042;-94
2021/09/12 04:42:08;;;;;;;6.57;3.92;;;15.40;92.40;;;;;;2040239;29;20047;-94
2021/09/12 04:43:27;;;;;;;6.10;3.90;;;15.40;92.40;;;;;;2046878;29;20518;-93
2021/09/12 04:44:47;;;;;;;5.90;3.92;;;15.30;92.40;;;;;;2060959;28;20039;-93
2021/09/12 04:46:07;;;;;;;7.35;3.90;;;15.30;92.40;;;;;;2054287;29;20087;-94
2021/09/12 04:47:26;;;;;;;7.00;3.83;;;15.30;92.40;;;;;;2058079;28;20039;-93
2021/09/12 04:48:46;;;;;;;7.78;4.20;;;15.30;92.70;;;;;;2041925;29;20052;-94
2021/09/12 04:50:06;;;;;;;8.15;4.00;;;15.30;92.40;;;;;;2065604;28;20042;-93
2021/09/12 04:51:25;;;;;;;5.85;3.72;;;15.30;92.40;;;;;;2068850;28;20484;-93
2021/09/12 04:52:44;;;;;;;6.68;4.15;;;15.30;92.40;;;;;;2045387;28;20522;-94
2021/09/12 04:54:04;;;;;;;6.97;4.15;;;15.30;92.40;;;;;;2055987;28;20114;-93
2021/09/12 04:55:23;;;;;;;6.80;4.22;;;15.30;92.40;;;;;;2055754;28;20082;-94
2021/09/12 04:56:42;;;;;;;7.03;4.13;;;15.30;92.40;;;;;;2047633;28;20036;-93
2021/09/12 04:58:01;;;;;;;6.45;4.15;;;15.30;92.40;;;;;;2047422;28;20051;-94
2021/09/12 04:59:20;;;;;;;6.38;4.10;;;15.30;92.40;;;;;;2052308;28;20043;-92
2021/09/12 05:00:40;;;;;;;7.07;4.00;;;15.20;92.40;;;;;;2041068;29;20591;-93
2021/09/12 05:01:59;;;;;;;6.13;3.92;;;15.20;92.40;;;;;;2037390;29;20043;-94
2021/09/12 05:03:18;;;;;;;6.53;4.22;;;15.20;92.40;;;;;;2049700;28;20039;-94
2021/09/12 05:04:37;;;;;;;6.90;4.20;;;15.20;92.40;;;;;;2044188;28;20051;-94
2021/09/12 05:05:57;;;;;;;7.45;4.13;;;15.20;92.40;;;;;;2050354;28;20038;-93
2021/09/12 05:07:16;;;;;;;6.38;4.28;;;15.20;92.60;;;;;;2052857;28;20035;-94
2021/09/12 05:08:36;;;;;;;6.47;4.22;;;15.10;92.40;;;;;;2055501;28;20109;-96
2021/09/12 05:09:55;;;;;;;6.93;4.30;;;15.20;92.40;;;;;;2050415;28;20055;-93
2021/09/12 05:11:14;;;;;;;7.25;4.28;;;15.20;92.40;;;;;;2058697;28;20425;-94
2021/09/12 05:12:33;;;;;;;5.95;4.30;;;15.20;92.40;;;;;;2057894;28;20035;-94
2021/09/12 05:13:52;;;;;;;6.43;4.47;;;15.10;92.40;;;;;;2047869;28;20166;-93
2021/09/12 05:15:12;;;;;;;8.15;4.55;;;15.10;92.40;;;;;;2047642;28;20043;-93
2021/09/12 05:16:31;;;;;;;7.25;4.40;;;15.10;92.40;;;;;;2046509;29;20051;-94
2021/09/12 05:17:50;;;;;;;5.78;4.15;;;15.10;92.40;;;;;;2053624;28;20043;-94
2021/09/12 05:19:09;;;;;;;7.30;4.45;;;15.10;92.40;;;;;;2066918;28;20038;-94
2021/09/12 05:20:29;;;;;;;7.57;4.63;;;15.00;92.30;;;;;;2050855;28;20043;-94
2021/09/12 05:21:48;;;;;;;8.25;4.50;;;15.10;92.40;;;;;;2057614;28;20501;-94
2021/09/12 05:23:07;;;;;;;8.27;4.93;;;15.10;92.40;;;;;;2051900;28;20521;-94
2021/09/12 05:24:26;;;;;;;7.13;4.63;;;15.00;92.60;;;;;;2039696;29;20518;-93
2021/09/12 05:25:46;;;;;;;7.13;4.60;;;15.00;92.40;;;;;;2045770;28;20039;-93
2021/09/12 05:27:06;;;;;;;8.45;4.82;;;15.10;92.40;;;;;;2039512;29;20075;-94
2021/09/12 05:28:25;;;;;;;6.53;4.38;;;15.00;92.40;;;;;;2054736;28;20034;-93
2021/09/12 05:29:44;;;;;;;7.38;4.72;;;15.00;92.30;;;;;;2042829;29;20234;-93
2021/09/12 05:31:04;;;;;;;7.32;4.13;;;15.00;92.30;;;;;;2043248;29;20043;-94
2021/09/12 05:32:23;;;;;;;7.00;4.38;;;15.00;92.30;;;;;;2055152;28;20050;-93
2021/09/12 05:33:43;;;;;;;8.55;4.50;;;15.00;92.30;;;;;;2056498;28;20035;-93
2021/09/12 05:35:03;;;;;;;7.90;4.72;;;15.00;92.30;;;;;;2047330;28;20051;-94
2021/09/12 05:36:22;;;;;;;7.60;4.78;;;15.00;92.30;;;;;;2037053;29;20517;-94
2021/09/12 05:37:41;;;;;;;7.65;4.82;;;15.00;92.30;;;;;;2049121;28;20441;-94
2021/09/12 05:39:00;;;;;;;8.90;4.85;;;15.00;92.30;;;;;;2053584;28;20038;-93
2021/09/12 05:40:19;;;;;;;8.00;4.80;;;15.00;92.30;;;;;;2062601;28;20039;-93
2021/09/12 05:41:39;;;;;;;7.40;5.18;;;15.00;92.30;;;;;;2044230;29;20040;-95
2021/09/12 05:42:58;;;;;;;7.07;4.55;;;15.00;92.30;;;;;;2037123;29;20051;-95
2021/09/12 05:44:18;;;;;;;8.73;5.20;;;15.00;92.30;;;;;;2052336;28;20121;-94
2021/09/12 05:45:37;;;;;;;8.65;4.75;;;15.00;92.30;;;;;;2057825;28;20035;-94
2021/09/12 05:46:57;;;;;;;8.10;5.15;;;15.00;92.30;;;;;;2054965;28;20060;-93
2021/09/12 05:48:16;;;;;;;7.57;4.55;;;15.00;92.30;;;;;;2055579;28;20046;-92
2021/09/12 05:49:35;;;;;;;8.85;4.82;;;15.00;92.30;;;;;;2059687;28;20042;-94
2021/09/12 05:50:54;;;;;;;6.40;4.50;;;15.00;92.30;;;;;;2066004;28;20042;-91
2021/09/12 05:52:14;;;;;;;7.57;4.80;;;15.00;92.30;;;;;;2062053;28;20058;-93
2021/09/12 05:53:33;;;;;;;7.75;5.18;;;15.00;92.30;;;;;;2060234;28;20038;-95
2021/09/12 05:54:52;;;;;;;7.57;4.82;;;15.00;92.50;;;;;;2055783;28;20489;-93
2021/09/12 05:56:11;;;;;;;6.78;4.40;;;15.10;92.20;;;;;;2051798;28;20117;-95
2021/09/12 05:57:30;;;;;;;8.55;5.05;;;15.10;92.20;;;;;;2050684;28;20479;-96
2021/09/12 05:58:49;;;;;;;7.65;5.25;;;15.10;92.20;;;;;;2052003;28;20133;-95
2021/09/12 06:00:10;;;;;;;10.20;5.40;;;15.10;92.20;;;;;;2042692;28;20616;-95
2021/09/12 06:01:29;;;;;;;9.73;4.68;;;15.10;92.10;;;;;;2047351;29;20047;-93
2021/09/12 06:02:48;;;;;;;9.48;5.57;;;15.10;92.10;;;;;;2062170;28;20035;-95
2021/09/12 06:04:08;;;;;;;8.63;5.22;;;15.10;92.10;;;;;;2043617;29;20052;-95
2021/09/12 06:05:27;;;;;;;7.68;5.32;;;15.20;92.10;;;;;;2056478;28;20046;-95
2021/09/12 06:06:46;;;;;;;7.20;4.75;;;15.20;92.30;;;;;;2058468;28;20087;-95
2021/09/12 06:08:06;;;;;;;7.65;4.70;;;15.20;92.00;;;;;;2047442;28;20035;-96
2021/09/12 06:09:25;;;;;;;8.63;5.10;;;15.20;92.00;;;;;;2053971;28;20038;-94
2021/09/12 06:10:45;;;;;;;9.70;5.05;;;15.30;92.00;;;;;;2052225;28;20039;-96
2021/09/12 06:12:08;;;;;;;9.63;4.95;;;15.30;92.00;;;;;;2059012;28;20409;-95
2021/09/12 06:13:27;;;;;;;8.80;5.10;;;15.30;92.00;;;;;;2069689;28;20042;-94
2021/09/12 06:14:46;;;;;;;8.07;5.05;;;15.30;91.90;;;;;;2060041;28;20130;-94
2021/09/12 06:16:07;;;;;;;7.05;5.05;;;15.30;91.90;;;;;;2057298;28;20417;-93
2021/09/12 06:17:26;;;;;;;;;;;15.40;91.90;;;;;;2064482;28;20485;-95
2021/09/12 06:18:45;;;;;;;8.38;4.70;;;15.30;91.90;;;;;;2066634;28;20000;-95
2021/09/12 06:20:06;;;;;;;7.97;4.85;;;15.30;91.80;;;;;;2059728;28;20070;-92
2021/09/12 06:21:25;;;;;;;8.88;4.95;;;15.30;91.80;;;;;;2059212;28;20031;-94
2021/09/12 06:22:46;;;;;;;7.80;5.07;;;15.30;91.80;;;;;;2044191;29;20036;-94
2021/09/12 06:24:05;;;;;;;7.68;4.93;;;15.30;91.80;;;;;;2052942;28;20038;-94
2021/09/12 06:25:24;;;;;;;6.95;4.93;;;15.30;91.80;;;;;;2066440;28;20085;-95
2021/09/12 06:26:43;;;;;;;8.25;5.30;;;15.30;91.80;;;;;;2065563;28;20073;-94
2021/09/12 06:28:03;;;;;;;8.13;4.95;;;15.30;91.80;;;;;;2057497;28;20035;-94
2021/09/12 06:29:22;;;;;;;8.25;5.40;;;15.30;91.80;;;;;;2043734;29;20047;-94
2021/09/12 06:30:44;;;;;;;8.02;5.32;;;15.30;91.80;;;;;;2059979;28;20034;-95
2021/09/12 06:32:03;;;;;;;8.50;5.38;;;15.30;91.80;;;;;;2062561;28;20031;-95
2021/09/12 06:33:23;;;;;;;7.97;5.05;;;15.40;91.80;;;;;;2065485;28;20042;-95
2021/09/12 06:34:42;;;;;;;9.57;5.75;;;15.40;92.10;;;;;;2062433;28;20043;-95
2021/09/12 06:36:02;;;;;;;10.43;5.65;;;15.40;91.80;;;;;;2065894;28;20050;-95
2021/09/12 06:37:21;;;;;;;8.27;5.45;;;15.40;91.70;;;;;;2051794;28;20043;-95
2021/09/12 06:38:41;;;;;;;8.65;6.05;;;15.50;92.00;;;;;;2043671;29;20035;-95
2021/09/12 06:40:00;;;;;;;8.23;5.47;;;15.50;91.70;;;;;;2044977;29;20494;-94
2021/09/12 06:41:19;;;;;;;9.65;5.80;;;15.50;91.70;;;;;;2058395;28;20035;-95
2021/09/12 06:42:39;;;;;;;7.95;5.68;;;15.50;91.70;;;;;;2057683;28;20042;-96
2021/09/12 06:43:58;;;;;;;8.63;5.85;;;15.50;91.60;;;;;;2061774;28;20042;-96
2021/09/12 06:45:18;;;;;;;8.75;5.30;;;15.50;91.60;;;;;;2043562;29;20047;-96
2021/09/12 06:46:38;;;;;;;8.55;5.30;;;15.50;91.60;;;;;;2059024;28;20472;-95
2021/09/12 06:47:58;;;;;;;8.98;5.80;;;15.60;91.60;;;;;;2057788;28;20445;-96
2021/09/12 06:49:17;;;;;;;7.93;5.70;;;15.60;91.60;;;;;;2054255;28;20042;-94
2021/09/12 06:50:36;;;;;;;9.48;5.50;;;15.70;91.60;;;;;;2057872;28;20039;-95
2021/09/12 06:51:55;;;;;;;8.55;5.72;;;15.60;91.50;;;;;;2062838;28;20038;-96
2021/09/12 06:53:16;;;;;;;8.35;5.65;;;15.70;91.50;;;;;;2062908;28;20053;-96
2021/09/12 06:54:35;;;;;;;7.80;5.35;;;15.70;91.50;;;;;;2045706;29;20426;-95